Time;durP1;ratioP1;P1;durP2;ratioP2;P2;SDS_P1;SDS_P2;PMS_P1;PMS_P2;Temp;Humidity;BMP_temperature;BMP_pressure;BME280_temperature;BME280_humidity;BME280_pressure;Samples;Min_cycle;Max_cycle;Signal;HPM_P1;HPM_P2
2022/12/21 00:14:57;;;;;;;82.78;36.33;;;8.80;56.90;;;;;;5571800;23;20091;-87
2022/12/21 00:17:23;;;;;;;76.20;35.78;;;8.60;57.30;;;;;;4997160;28;20029;-86
2022/12/21 00:19:48;;;;;;;75.32;34.28;;;8.70;57.20;;;;;;4997242;28;20068;-86
2022/12/21 00:22:14;;;;;;;64.05;31.75;;;8.60;57.10;;;;;;5013549;28;20033;-84
2022/12/21 00:24:40;;;;;;;112.85;42.35;;;8.70;57.10;;;;;;4996893;28;20025;-83
2022/12/21 00:27:05;;;;;;;93.75;37.25;;;8.90;56.50;;;;;;4997105;28;20036;-85
2022/12/21 00:29:31;;;;;;;71.72;33.05;;;8.80;57.00;;;;;;4997234;28;20076;-84
2022/12/21 00:31:57;;;;;;;60.78;30.48;;;9.10;56.60;;;;;;5014775;28;20049;-87
2022/12/21 00:34:23;;;;;;;60.20;29.67;;;9.40;56.00;;;;;;5014506;28;20104;-84
2022/12/21 00:36:49;;;;;;;55.95;28.10;;;9.50;55.40;;;;;;4997421;28;20113;-90
2022/12/21 00:39:17;;;;;;;60.78;30.20;;;9.60;55.20;;;;;;4996823;28;20054;-89
2022/12/21 00:41:43;;;;;;;56.75;29.92;;;9.40;55.70;;;;;;4996935;28;20482;-84
2022/12/21 00:55:21;;;;;;;61.35;28.40;;;9.90;54.70;;;;;;4994442;28;20030;-84
2022/12/21 01:04:12;;;;;;;65.72;28.38;;;9.70;54.60;;;;;;6085223;23;20039;-84
2022/12/21 01:06:38;;;;;;;57.08;28.23;;;9.80;54.80;;;;;;5033395;28;20488;-84
2022/12/21 01:09:05;;;;;;;53.92;28.52;;;9.80;54.50;;;;;;5033840;28;20422;-84
2022/12/21 01:18:28;;;;;;;60.92;28.55;;;9.90;54.50;;;;;;5034016;28;20499;-83
2022/12/21 01:25:08;;;;;;;53.60;26.77;;;10.00;54.40;;;;;;5018330;28;20514;-83
2022/12/21 01:28:24;;;;;;;53.95;26.40;;;10.10;53.90;;;;;;5016898;28;20029;-85
2022/12/21 01:30:50;;;;;;;58.13;27.67;;;10.00;54.20;;;;;;5018307;28;20025;-82
2022/12/21 01:33:18;;;;;;;55.22;26.33;;;9.80;54.20;;;;;;5030068;28;20056;-87
2022/12/21 01:35:45;;;;;;;60.50;28.60;;;9.90;54.20;;;;;;5025841;28;20074;-86
2022/12/21 01:38:14;;;;;;;68.15;29.83;;;9.80;54.40;;;;;;5032519;28;20018;-83
2022/12/21 01:40:40;;;;;;;66.82;30.38;;;9.90;54.30;;;;;;5025316;28;20032;-85
2022/12/21 01:43:37;;;;;;;65.10;31.30;;;10.00;54.00;;;;;;5036536;28;20029;-85
2022/12/21 01:52:52;;;;;;;62.50;30.27;;;8.90;56.10;;;;;;5020725;28;20036;-82
2022/12/21 01:55:18;;;;;;;56.33;28.88;;;8.90;55.90;;;;;;5035737;28;20029;-83
2022/12/21 01:57:44;;;;;;;56.15;29.00;;;8.90;56.40;;;;;;5032527;28;20034;-85
2022/12/21 02:03:39;;;;;;;57.33;27.60;;;9.00;56.10;;;;;;5048557;28;20040;-84
2022/12/21 02:09:32;;;;;;;57.83;29.77;;;9.10;55.60;;;;;;5036943;28;20438;-85
2022/12/21 02:14:48;;;;;;;63.97;28.15;;;9.10;55.40;;;;;;5380754;23;19917;-86
2022/12/21 02:17:31;;;;;;;62.03;29.90;;;8.70;56.30;;;;;;5037008;28;20053;-83
2022/12/21 02:20:21;;;;;;;57.58;27.88;;;8.60;56.20;;;;;;5019053;28;20064;-84
2022/12/21 02:23:11;;;;;;;49.05;23.45;;;8.10;57.30;;;;;;5036969;28;20144;-86
2022/12/21 02:25:55;;;;;;;58.75;29.58;;;8.30;57.80;;;;;;5036901;28;20025;-84
2022/12/21 02:28:48;;;;;;;55.78;28.75;;;8.60;57.30;;;;;;5019058;28;20029;-87
2022/12/21 02:31:35;;;;;;;59.28;28.60;;;9.10;56.30;;;;;;5018883;28;20018;-86
2022/12/21 02:34:10;;;;;;;55.88;29.05;;;9.30;55.40;;;;;;5005357;28;20025;-84
2022/12/21 02:36:45;;;;;;;60.30;29.23;;;9.10;55.70;;;;;;4999249;28;20014;-84
2022/12/21 02:39:44;;;;;;;54.88;28.10;;;9.10;55.70;;;;;;5016519;28;20022;-85
2022/12/21 02:44:12;;;;;;;59.28;30.80;;;8.90;56.30;;;;;;5018444;28;20032;-84
2022/12/21 02:45:19;;;;;;;64.97;30.05;;;8.80;56.60;;;;;;5036297;28;20025;-87
2022/12/21 02:47:53;;;;;;;55.63;28.85;;;8.80;56.90;;;;;;5018650;28;20112;-84
2022/12/21 02:50:27;;;;;;;56.70;30.02;;;9.20;56.60;;;;;;5018421;28;20052;-83
2022/12/21 03:00:53;;;;;;;74.90;32.75;;;10.00;54.40;;;;;;5147791;23;20053;-85
2022/12/21 03:04:02;;;;;;;71.60;32.00;;;9.80;54.40;;;;;;5012993;28;20056;-83
2022/12/21 03:06:34;;;;;;;83.30;30.90;;;9.60;55.00;;;;;;5018745;28;20033;-86
2022/12/21 03:09:12;;;;;;;78.65;32.10;;;9.50;55.00;;;;;;5017857;28;20319;-84
2022/12/21 03:12:10;;;;;;;82.65;34.53;;;9.30;55.30;;;;;;5018169;28;20030;-86
2022/12/21 03:14:58;;;;;;;112.47;38.40;;;9.30;55.20;;;;;;5024682;28;20430;-90
2022/12/21 03:17:52;;;;;;;110.50;38.75;;;9.40;55.30;;;;;;5017812;28;20053;-89
2022/12/21 03:20:28;;;;;;;99.18;38.58;;;9.20;55.50;;;;;;5000639;28;20052;-86
2022/12/21 03:23:00;;;;;;;64.35;32.17;;;9.10;55.70;;;;;;5018036;28;20438;-89
2022/12/21 03:25:58;;;;;;;68.07;31.35;;;9.20;55.50;;;;;;5035322;28;20058;-85
2022/12/21 03:40:55;;;;;;;61.38;31.63;;;9.00;55.70;;;;;;5091736;27;20382;-85
2022/12/21 03:43:28;;;;;;;57.97;30.60;;;10.10;54.20;;;;;;5091322;28;20028;-85
2022/12/21 03:46:02;;;;;;;67.60;31.30;;;10.10;53.60;;;;;;5090248;28;20492;-91
2022/12/21 03:48:42;;;;;;;54.60;27.75;;;10.10;53.60;;;;;;5090919;28;20461;-89
2022/12/21 03:51:21;;;;;;;52.17;26.88;;;10.10;53.50;;;;;;5090151;28;20032;-84
2022/12/21 03:53:56;;;;;;;52.63;27.45;;;10.20;53.40;;;;;;5090049;28;20024;-85
2022/12/21 03:56:35;;;;;;;52.28;28.23;;;10.30;53.00;;;;;;5091121;28;20077;-89
2022/12/21 03:59:01;;;;;;;56.47;27.40;;;10.40;53.00;;;;;;5090125;28;20089;-88
2022/12/21 04:01:53;;;;;;;51.35;26.88;;;10.50;53.00;;;;;;5089830;28;20035;-84
2022/12/21 04:04:41;;;;;;;61.13;28.75;;;10.60;52.90;;;;;;5089331;28;20086;-84
2022/12/21 04:07:09;;;;;;;51.35;27.27;;;10.40;52.90;;;;;;5070621;28;20027;-83
2022/12/21 04:09:37;;;;;;;58.95;30.90;;;10.40;53.10;;;;;;5070537;28;20416;-86
2022/12/21 04:14:48;;;;;;;56.75;28.20;;;10.50;53.00;;;;;;5070846;28;20027;-86
2022/12/21 04:17:14;;;;;;;56.05;27.08;;;10.40;52.80;;;;;;5070304;28;20025;-85
2022/12/21 04:19:57;;;;;;;54.00;28.13;;;10.20;53.10;;;;;;5069084;28;20083;-88
2022/12/21 04:28:09;;;;;;;55.47;29.05;;;10.30;53.10;;;;;;5069761;28;20032;-88
2022/12/21 04:30:42;;;;;;;55.58;28.98;;;10.20;53.00;;;;;;5072800;28;20466;-92
2022/12/21 04:33:11;;;;;;;60.13;27.40;;;10.00;53.50;;;;;;5087153;28;20078;-91
2022/12/21 04:37:30;;;;;;;53.33;26.05;;;10.20;53.50;;;;;;5076286;28;20025;-92
2022/12/21 04:44:47;;;;;;;55.03;24.75;;;10.20;53.40;;;;;;5299087;23;20594;-85
2022/12/21 04:47:14;;;;;;;47.33;24.95;;;9.90;53.20;;;;;;5019306;28;20033;-91
2022/12/21 04:49:40;;;;;;;51.13;25.60;;;9.50;53.50;;;;;;5018529;28;20467;-89
2022/12/21 04:52:06;;;;;;;50.22;24.83;;;9.30;54.20;;;;;;5018901;28;20028;-90
2022/12/21 04:54:31;;;;;;;51.78;24.20;;;9.50;53.80;;;;;;5036652;28;20025;-86
2022/12/21 04:56:57;;;;;;;53.70;25.35;;;9.50;53.90;;;;;;5018856;28;20036;-85
2022/12/21 04:59:24;;;;;;;53.55;25.83;;;9.70;53.60;;;;;;5018815;28;20458;-86
2022/12/21 05:01:50;;;;;;;48.55;25.20;;;9.90;53.30;;;;;;5006406;28;20022;-85
2022/12/21 05:04:16;;;;;;;49.40;24.38;;;9.50;53.40;;;;;;4999012;28;20033;-86
2022/12/21 05:06:41;;;;;;;54.20;27.10;;;9.00;53.70;;;;;;4999127;28;20033;-85
2022/12/21 05:09:07;;;;;;;50.67;24.38;;;9.00;54.30;;;;;;4999109;28;20176;-85
2022/12/21 05:11:34;;;;;;;50.70;25.40;;;9.00;54.20;;;;;;4998912;28;20466;-86
2022/12/21 05:13:59;;;;;;;51.13;23.30;;;9.00;54.60;;;;;;4998802;28;20022;-88
2022/12/21 05:16:25;;;;;;;48.65;22.67;;;9.20;53.70;;;;;;4998849;28;20037;-91
2022/12/21 05:21:36;;;;;;;49.65;22.52;;;9.60;53.00;;;;;;5016449;28;20041;-88
2022/12/21 05:30:45;;;;;;;54.08;25.25;;;9.70;52.90;;;;;;4996659;28;20053;-88
2022/12/21 05:35:02;;;;;;;43.53;19.95;;;9.90;51.90;;;;;;5074456;27;1362131;-83
2022/12/21 05:37:27;;;;;;;41.40;20.70;;;10.10;51.60;;;;;;5110818;28;20474;-84
2022/12/21 05:39:53;;;;;;;41.17;20.90;;;10.10;51.50;;;;;;5111183;28;20089;-85
2022/12/21 05:42:19;;;;;;;38.53;20.08;;;10.20;51.50;;;;;;5093481;28;20032;-85
2022/12/21 05:44:44;;;;;;;41.42;20.42;;;10.00;51.20;;;;;;5110815;28;20094;-86
2022/12/21 05:47:10;;;;;;;37.72;19.70;;;10.10;51.60;;;;;;5090130;28;20020;-90
2022/12/21 05:49:36;;;;;;;40.88;21.35;;;10.10;52.00;;;;;;5092832;28;20424;-90
2022/12/21 05:52:02;;;;;;;46.60;22.08;;;9.90;51.70;;;;;;5092636;28;20023;-89
2022/12/21 05:54:28;;;;;;;55.33;25.27;;;9.80;52.10;;;;;;5111163;28;20132;-90
2022/12/21 05:59:21;;;;;;;44.58;20.30;;;9.90;51.80;;;;;;4724940;22;10001911;-88
2022/12/21 06:01:47;;;;;;;42.88;20.15;;;10.10;51.70;;;;;;5140201;22;20049;-89
2022/12/21 06:04:13;;;;;;;38.88;20.67;;;10.00;51.80;;;;;;5033261;28;20033;-88
2022/12/21 06:06:39;;;;;;;41.05;21.23;;;9.90;51.80;;;;;;5033246;28;20124;-89
2022/12/21 06:09:04;;;;;;;40.58;21.02;;;10.00;51.90;;;;;;5051109;28;20021;-88
2022/12/21 06:11:32;;;;;;;44.05;20.58;;;10.00;51.60;;;;;;5029506;28;20076;-85
2022/12/21 06:13:58;;;;;;;35.95;19.88;;;10.10;51.60;;;;;;5032787;28;20029;-85
2022/12/21 06:16:26;;;;;;;38.17;19.65;;;10.10;51.70;;;;;;5033041;28;20081;-83
2022/12/21 06:28:03;;;;;;;38.20;19.05;;;10.20;51.10;;;;;;4989062;28;20045;-84
2022/12/21 06:32:04;;;;;;;41.88;20.48;;;10.20;50.60;;;;;;5072646;27;1349572;-81
2022/12/21 06:34:31;;;;;;;38.13;19.48;;;10.30;51.10;;;;;;5108467;28;20027;-82
2022/12/21 06:36:56;;;;;;;37.83;19.35;;;10.40;50.80;;;;;;5062513;28;20119;-83
2022/12/21 06:39:22;;;;;;;37.97;18.30;;;10.40;50.40;;;;;;5081290;28;20024;-84
2022/12/21 06:41:48;;;;;;;41.63;20.05;;;10.30;50.40;;;;;;5093518;28;20026;-83
2022/12/21 06:44:14;;;;;;;48.08;22.65;;;10.10;50.80;;;;;;5111426;28;20105;-85
2022/12/21 06:46:39;;;;;;;47.08;22.50;;;10.10;50.90;;;;;;5083171;28;20122;-84
2022/12/21 06:49:05;;;;;;;43.58;20.92;;;9.90;51.50;;;;;;5081149;28;20107;-84
2022/12/21 06:51:31;;;;;;;44.15;20.73;;;10.00;51.10;;;;;;5088350;28;20050;-90
2022/12/21 06:53:56;;;;;;;41.22;20.95;;;9.90;51.10;;;;;;5093289;28;20024;-91
2022/12/21 07:11:43;;;;;;;38.45;19.13;;;9.40;51.90;;;;;;6097519;23;20089;-82
2022/12/21 07:14:09;;;;;;;45.85;21.52;;;9.40;52.40;;;;;;4950807;28;20044;-88
2022/12/21 07:16:35;;;;;;;46.88;22.95;;;9.50;52.10;;;;;;4937057;29;20040;-86
2022/12/21 07:19:00;;;;;;;49.05;24.00;;;9.60;51.80;;;;;;4937039;29;20063;-91
2022/12/21 07:21:26;;;;;;;48.45;21.70;;;9.60;51.70;;;;;;4933585;28;20114;-85
2022/12/21 07:23:52;;;;;;;43.47;21.75;;;9.60;51.90;;;;;;4942742;29;20024;-84
2022/12/21 07:26:20;;;;;;;45.53;20.60;;;9.70;51.90;;;;;;4913954;29;20028;-82
2022/12/21 07:28:47;;;;;;;37.72;19.70;;;10.00;51.20;;;;;;4926998;29;20072;-85
2022/12/21 07:31:19;;;;;;;40.35;19.95;;;10.30;50.80;;;;;;4933513;29;20035;-83
2022/12/21 07:33:44;;;;;;;43.58;20.80;;;10.30;50.40;;;;;;4932479;29;20032;-83
2022/12/21 07:36:11;;;;;;;43.13;22.02;;;10.20;50.10;;;;;;4939884;29;20068;-83
2022/12/21 07:38:38;;;;;;;42.67;21.10;;;10.20;50.90;;;;;;4956872;28;20115;-83
2022/12/21 07:41:07;;;;;;;40.13;20.40;;;10.20;50.50;;;;;;4933251;28;20032;-83
2022/12/21 07:43:34;;;;;;;42.72;20.10;;;10.30;50.30;;;;;;4928183;29;20023;-83
2022/12/21 07:46:01;;;;;;;43.03;21.70;;;10.40;50.60;;;;;;4954143;29;20032;-87
2022/12/21 07:59:15;;;;;;;46.28;21.70;;;9.60;51.50;;;;;;4929195;29;20042;-86
2022/12/21 08:06:00;;;;;;;51.15;24.48;;;9.70;51.50;;;;;;4918573;29;20038;-88
2022/12/21 08:31:35;;;;;;;42.55;21.35;;;9.50;51.60;;;;;;4898094;29;20088;-83
2022/12/21 08:34:01;;;;;;;39.22;22.10;;;9.30;51.80;;;;;;4898540;29;20031;-83
2022/12/21 08:36:27;;;;;;;41.08;20.67;;;9.30;51.90;;;;;;4898687;29;20041;-83
2022/12/21 08:38:56;;;;;;;44.35;23.75;;;9.50;52.00;;;;;;4938220;29;20024;-83
2022/12/21 08:41:22;;;;;;;41.88;21.63;;;9.80;51.50;;;;;;4921108;29;20122;-83
2022/12/21 08:43:48;;;;;;;44.25;22.08;;;9.90;50.90;;;;;;4937457;29;20479;-85
2022/12/21 08:46:14;;;;;;;46.33;22.63;;;9.80;51.10;;;;;;4936715;29;20043;-83
2022/12/21 08:48:40;;;;;;;43.13;22.92;;;10.00;51.20;;;;;;4936771;29;20024;-83
2022/12/21 08:51:07;;;;;;;44.00;21.75;;;9.90;51.00;;;;;;4920787;29;20036;-83
2022/12/21 08:53:34;;;;;;;44.22;21.75;;;10.10;51.00;;;;;;4919746;29;20406;-84
2022/12/21 08:56:00;;;;;;;40.05;20.88;;;10.20;50.80;;;;;;4920921;29;20032;-83
2022/12/21 08:58:26;;;;;;;43.63;22.42;;;10.10;50.90;;;;;;4924776;29;20435;-84
2022/12/21 09:00:53;;;;;;;42.60;21.73;;;10.00;51.00;;;;;;4939489;29;20130;-83
2022/12/21 09:03:20;;;;;;;41.60;23.13;;;10.20;51.20;;;;;;4956734;29;20427;-84
2022/12/21 09:05:46;;;;;;;39.22;22.10;;;10.60;50.50;;;;;;4939463;29;20071;-83
2022/12/21 09:08:13;;;;;;;39.10;20.02;;;10.70;50.30;;;;;;4956359;29;20035;-83
2022/12/21 09:17:47;;;;;;;53.78;22.80;;;10.90;50.00;;;;;;4841473;29;20140;-83
2022/12/21 09:20:13;;;;;;;43.97;21.58;;;11.20;49.20;;;;;;4841882;29;20478;-83
2022/12/21 09:22:39;;;;;;;39.30;20.58;;;11.10;49.20;;;;;;4826827;29;20041;-83
2022/12/21 09:25:06;;;;;;;42.35;21.75;;;11.10;49.30;;;;;;4841465;29;20045;-83
2022/12/21 09:27:32;;;;;;;59.58;24.33;;;11.20;49.20;;;;;;4853135;29;20061;-84
2022/12/21 09:29:58;;;;;;;43.22;21.92;;;11.20;49.00;;;;;;4860273;29;20029;-83
2022/12/21 09:32:23;;;;;;;41.85;21.40;;;11.30;49.20;;;;;;4844186;29;20112;-83
2022/12/21 09:34:50;;;;;;;39.15;20.63;;;11.30;48.90;;;;;;4860190;29;20038;-82
2022/12/21 09:37:16;;;;;;;42.63;21.48;;;11.40;48.70;;;;;;4860225;29;20040;-82
2022/12/21 09:39:43;;;;;;;39.40;20.70;;;11.30;48.90;;;;;;4844330;29;20142;-82
2022/12/21 09:42:35;;;;;;;45.42;21.67;;;11.30;49.00;;;;;;4845220;29;20069;-82
2022/12/21 09:45:19;;;;;;;38.38;20.48;;;11.20;48.90;;;;;;4844161;29;20033;-83
2022/12/21 09:47:53;;;;;;;36.70;19.23;;;11.20;48.90;;;;;;4844135;29;20584;-82
2022/12/21 09:50:26;;;;;;;46.67;23.83;;;11.20;49.00;;;;;;4859640;29;20033;-83
2022/12/21 09:53:03;;;;;;;46.15;22.55;;;11.20;49.30;;;;;;4859950;29;20029;-81
2022/12/21 09:55:41;;;;;;;38.38;21.92;;;11.20;49.50;;;;;;4911195;29;20032;-82
2022/12/21 09:58:14;;;;;;;48.70;24.80;;;11.40;49.20;;;;;;4919616;29;20386;-82
2022/12/21 10:00:42;;;;;;;47.30;23.75;;;11.40;48.80;;;;;;4935125;29;20028;-82
2022/12/21 10:03:26;;;;;;;46.30;23.08;;;11.10;49.50;;;;;;4919577;29;20024;-82
2022/12/21 10:06:33;;;;;;;42.83;21.55;;;11.10;49.20;;;;;;4919371;29;20501;-82
2022/12/21 10:09:04;;;;;;;42.30;21.90;;;11.10;49.70;;;;;;4896653;29;20043;-82
2022/12/21 10:11:52;;;;;;;39.80;21.50;;;11.10;49.20;;;;;;4896516;29;20063;-82
2022/12/21 10:14:38;;;;;;;42.67;21.63;;;11.00;49.60;;;;;;4912299;29;20021;-81
2022/12/21 10:17:45;;;;;;;40.85;22.15;;;10.80;49.70;;;;;;4896564;29;20036;-82
2022/12/21 10:20:32;;;;;;;41.28;21.40;;;10.80;49.80;;;;;;4862362;29;20039;-82
2022/12/21 10:23:02;;;;;;;38.53;21.85;;;10.90;50.10;;;;;;4862276;29;20189;-82
2022/12/21 10:25:38;;;;;;;41.42;21.08;;;11.10;49.80;;;;;;4893138;29;20425;-82
2022/12/21 10:28:25;;;;;;;39.78;22.08;;;11.20;49.40;;;;;;4909183;29;20080;-82
2022/12/21 10:31:03;;;;;;;39.42;21.48;;;11.00;49.50;;;;;;4880708;29;20540;-81
2022/12/21 10:33:29;;;;;;;38.00;21.45;;;10.90;49.90;;;;;;4880532;29;20459;-82
2022/12/21 10:36:00;;;;;;;45.90;24.73;;;10.90;49.50;;;;;;4896597;29;20484;-81
2022/12/21 10:38:31;;;;;;;52.50;25.45;;;10.50;49.80;;;;;;4880869;29;20436;-81
2022/12/21 10:40:58;;;;;;;50.83;27.27;;;10.40;50.50;;;;;;4896179;29;20194;-87
2022/12/21 10:43:23;;;;;;;56.95;27.95;;;10.50;50.70;;;;;;4880787;29;20132;-87
2022/12/21 10:45:49;;;;;;;42.28;23.58;;;10.60;50.10;;;;;;4896356;29;20037;-83
2022/12/21 10:48:15;;;;;;;44.00;24.15;;;10.30;50.40;;;;;;4880210;29;20040;-82
2022/12/21 10:50:44;;;;;;;45.75;23.70;;;9.90;51.00;;;;;;4880622;29;20044;-82
2022/12/21 10:53:27;;;;;;;40.50;24.07;;;9.70;51.70;;;;;;4899914;29;20036;-85
2022/12/21 10:56:00;;;;;;;45.80;24.10;;;9.70;52.00;;;;;;4918886;29;20306;-81
2022/12/21 11:00:32;;;;;;;42.25;22.90;;;9.60;51.30;;;;;;5091184;27;20370;-82
2022/12/21 11:03:01;;;;;;;45.90;22.95;;;9.50;52.10;;;;;;5091076;28;20028;-82
2022/12/21 11:05:32;;;;;;;45.70;23.60;;;9.90;51.90;;;;;;5089949;28;20032;-82
2022/12/21 11:08:17;;;;;;;;;;;10.30;50.80;;;;;;5091430;28;20099;-82
2022/12/21 11:10:52;;;;;;;43.92;23.35;;;10.30;50.50;;;;;;5093626;28;19904;-82
2022/12/21 11:13:22;;;;;;;46.80;23.33;;;10.30;50.90;;;;;;5089496;28;20360;-82
2022/12/21 11:15:53;;;;;;;33.45;18.38;;;10.20;50.90;;;;;;5089722;28;20032;-82
2022/12/21 11:18:54;;;;;;;47.83;24.60;;;9.90;51.10;;;;;;5090641;28;20028;-83
2022/12/21 11:21:38;;;;;;;46.28;23.40;;;10.20;51.50;;;;;;5080871;28;20036;-82
2022/12/21 11:24:13;;;;;;;46.83;24.85;;;10.20;51.00;;;;;;5089256;28;20040;-82
2022/12/21 11:27:01;;;;;;;43.75;22.70;;;10.30;51.00;;;;;;5089250;28;20024;-82
2022/12/21 11:29:51;;;;;;;42.28;21.88;;;10.60;50.50;;;;;;5089286;28;20528;-82
2022/12/21 11:32:18;;;;;;;39.35;20.88;;;10.80;50.40;;;;;;5088705;28;20070;-82
2022/12/21 11:34:57;;;;;;;39.03;22.08;;;10.90;50.20;;;;;;5089346;28;20027;-82
2022/12/21 11:37:27;;;;;;;42.42;23.48;;;10.80;49.70;;;;;;5089224;28;20530;-82
2022/12/21 11:39:56;;;;;;;39.10;21.00;;;10.70;50.30;;;;;;5088956;28;20044;-82
2022/12/21 11:42:24;;;;;;;37.47;20.35;;;11.00;50.10;;;;;;5089181;28;20047;-83
2022/12/21 11:45:17;;;;;;;38.22;20.42;;;11.20;49.40;;;;;;5089847;28;20032;-82
2022/12/21 11:47:51;;;;;;;34.20;19.30;;;10.80;49.40;;;;;;5090574;28;20051;-83
2022/12/21 11:50:36;;;;;;;37.70;20.33;;;10.90;49.90;;;;;;5088680;28;20035;-82
2022/12/21 11:53:20;;;;;;;34.40;19.27;;;11.00;49.00;;;;;;5090157;28;20115;-82
2022/12/21 11:56:09;;;;;;;35.42;19.58;;;10.90;49.30;;;;;;5089769;28;20035;-82
2022/12/21 11:59:00;;;;;;;36.95;19.40;;;11.10;48.80;;;;;;5088067;28;20063;-82
2022/12/21 12:02:03;;;;;;;35.88;19.55;;;11.20;48.90;;;;;;5089905;28;20052;-82
2022/12/21 12:05:03;;;;;;;35.78;19.45;;;11.00;49.10;;;;;;5088683;28;20036;-82
2022/12/21 12:07:59;;;;;;;38.87;20.20;;;10.90;49.50;;;;;;5089766;28;20024;-82
2022/12/21 12:10:37;;;;;;;39.03;19.63;;;11.00;49.50;;;;;;5083865;28;20031;-82
2022/12/21 12:13:10;;;;;;;45.90;22.90;;;11.30;48.90;;;;;;5080351;28;20020;-83
2022/12/21 12:16:01;;;;;;;41.15;21.58;;;11.10;49.30;;;;;;5096703;28;20058;-83
2022/12/21 12:18:38;;;;;;;40.38;21.40;;;10.90;49.10;;;;;;5095495;28;20513;-84
2022/12/21 12:21:42;;;;;;;46.05;23.85;;;11.00;49.20;;;;;;5095454;28;20024;-82
2022/12/21 12:24:38;;;;;;;42.13;21.48;;;11.20;48.50;;;;;;5077762;28;20075;-83
2022/12/21 12:27:22;;;;;;;39.72;19.95;;;11.50;48.80;;;;;;5094904;28;20024;-86
2022/12/21 12:30:00;;;;;;;42.53;21.83;;;11.50;48.00;;;;;;5077618;28;20416;-82
2022/12/21 12:32:44;;;;;;;41.53;21.40;;;11.40;48.70;;;;;;5077256;28;20039;-81
2022/12/21 12:35:16;;;;;;;42.40;22.00;;;11.40;48.80;;;;;;4721050;28;10000439;-81
2022/12/21 12:37:51;;;;;;;46.30;23.15;;;11.60;48.30;;;;;;5036179;28;20025;-82
2022/12/21 12:40:34;;;;;;;40.88;22.80;;;11.70;48.10;;;;;;5053031;28;20120;-82
2022/12/21 12:43:07;;;;;;;40.00;23.42;;;11.50;48.00;;;;;;5036348;28;20123;-81
2022/12/21 12:45:43;;;;;;;39.75;20.10;;;11.50;48.60;;;;;;5036461;28;20071;-82
2022/12/21 12:48:18;;;;;;;36.25;20.15;;;11.70;48.40;;;;;;5052278;28;20463;-81
2022/12/21 12:50:59;;;;;;;39.67;20.75;;;11.80;47.90;;;;;;5036057;28;20163;-83
2022/12/21 12:53:36;;;;;;;42.05;22.10;;;11.80;48.00;;;;;;5035629;28;20021;-84
2022/12/21 12:56:07;;;;;;;44.08;23.02;;;11.50;47.80;;;;;;5054594;28;20041;-85
2022/12/21 12:58:46;;;;;;;41.15;22.67;;;11.30;48.00;;;;;;5053322;28;20393;-83
2022/12/21 13:01:23;;;;;;;52.35;25.55;;;11.20;48.60;;;;;;5053551;28;20036;-83
2022/12/21 13:04:26;;;;;;;44.50;23.38;;;11.50;48.60;;;;;;5054045;28;20025;-81
2022/12/21 13:07:07;;;;;;;48.85;24.60;;;11.20;48.00;;;;;;5053505;28;20025;-82
2022/12/21 13:09:51;;;;;;;37.63;20.30;;;11.00;49.00;;;;;;5053363;28;20021;-85
2022/12/21 13:12:51;;;;;;;42.63;22.55;;;11.20;48.00;;;;;;5053062;28;20029;-84
2022/12/21 13:15:19;;;;;;;38.15;20.98;;;11.50;47.90;;;;;;5053194;28;20082;-85
2022/12/21 13:18:06;;;;;;;42.50;21.02;;;11.60;48.00;;;;;;5053951;28;20087;-81
2022/12/21 13:20:33;;;;;;;38.38;19.85;;;11.50;48.10;;;;;;5053028;28;20056;-82
2022/12/21 13:23:11;;;;;;;40.60;20.55;;;11.70;48.10;;;;;;5051384;28;20098;-84
2022/12/21 13:25:46;;;;;;;39.20;20.33;;;11.80;48.10;;;;;;5052688;28;20466;-85
2022/12/21 13:28:26;;;;;;;35.80;20.00;;;11.90;47.90;;;;;;5052729;28;20111;-80
2022/12/21 13:30:53;;;;;;;;;;;11.70;47.80;;;;;;5052437;28;20027;-85
2022/12/21 13:33:20;;;;;;;36.78;18.77;;;11.60;48.00;;;;;;5052337;28;19905;-85
2022/12/21 13:35:51;;;;;;;36.53;18.30;;;11.50;48.30;;;;;;5081825;28;20024;-82
2022/12/21 13:38:36;;;;;;;35.50;18.90;;;11.60;47.60;;;;;;5092530;28;20119;-82
2022/12/21 13:41:16;;;;;;;33.92;18.55;;;11.30;47.20;;;;;;5093032;28;20114;-81
2022/12/21 13:44:05;;;;;;;33.73;19.13;;;11.00;48.30;;;;;;5092471;28;20023;-81
2022/12/21 13:46:32;;;;;;;34.08;18.10;;;11.10;48.00;;;;;;5091989;28;20054;-83
2022/12/21 13:49:21;;;;;;;33.15;18.88;;;11.20;48.30;;;;;;5092769;28;20377;-80
2022/12/21 13:52:19;;;;;;;34.40;19.05;;;11.50;47.60;;;;;;5089648;28;20127;-82
2022/12/21 13:55:00;;;;;;;33.47;18.83;;;11.60;47.10;;;;;;5091992;28;20038;-82
2022/12/21 13:58:07;;;;;;;32.80;18.38;;;11.50;47.80;;;;;;5091640;28;20487;-84
2022/12/21 14:01:18;;;;;;;32.85;18.20;;;11.60;47.70;;;;;;5088669;28;20044;-81
2022/12/21 14:03:47;;;;;;;38.45;20.77;;;11.60;47.60;;;;;;5073832;28;20040;-82
2022/12/21 14:06:34;;;;;;;45.03;18.80;;;11.60;48.00;;;;;;5074019;28;20028;-85
2022/12/21 14:09:31;;;;;;;40.38;19.58;;;11.50;47.70;;;;;;5073922;28;20036;-81
2022/12/21 14:12:27;;;;;;;35.28;18.80;;;11.70;48.10;;;;;;5073875;28;20090;-82
2022/12/21 14:15:11;;;;;;;37.75;19.85;;;11.90;47.40;;;;;;5074165;28;20063;-82
2022/12/21 14:17:45;;;;;;;42.30;20.83;;;11.90;47.60;;;;;;5091026;28;20032;-80
2022/12/21 14:20:24;;;;;;;36.85;20.17;;;11.90;47.60;;;;;;5090473;28;20044;-82
2022/12/21 14:22:51;;;;;;;37.60;19.17;;;11.90;47.90;;;;;;5073713;28;20057;-81
2022/12/21 14:25:18;;;;;;;71.07;36.28;;;11.80;47.40;;;;;;5073870;28;20077;-84
2022/12/21 14:28:05;;;;;;;158.30;70.40;;;11.80;47.70;;;;;;5074221;28;20125;-82
2022/12/21 14:30:32;;;;;;;235.63;100.38;;;11.80;47.60;;;;;;5073425;28;20030;-83
2022/12/21 14:33:06;;;;;;;218.32;87.07;;;12.00;47.60;;;;;;5055567;28;20036;-86
2022/12/21 14:35:41;;;;;;;116.00;49.13;;;12.10;47.50;;;;;;5053415;28;20729;-84
2022/12/21 14:38:26;;;;;;;147.90;60.00;;;12.20;47.50;;;;;;5054118;28;20030;-86
2022/12/21 14:41:10;;;;;;;78.82;36.35;;;12.20;47.60;;;;;;5067710;28;20054;-88
2022/12/21 14:44:21;;;;;;;46.28;25.52;;;12.10;47.60;;;;;;5072149;28;20021;-86
2022/12/21 14:47:07;;;;;;;53.95;26.08;;;11.80;47.70;;;;;;5070748;28;20562;-85
2022/12/21 14:49:36;;;;;;;49.50;25.23;;;11.50;48.20;;;;;;5052156;28;20098;-81
2022/12/21 14:52:13;;;;;;;52.75;26.52;;;11.50;48.60;;;;;;5051015;28;20025;-86
2022/12/21 14:54:43;;;;;;;44.13;23.63;;;11.50;48.70;;;;;;5051069;28;20124;-86
2022/12/21 14:57:08;;;;;;;45.20;23.83;;;11.60;49.10;;;;;;5051277;28;20021;-79
2022/12/21 15:00:02;;;;;;;44.47;22.85;;;11.80;48.50;;;;;;5050881;28;20049;-81
2022/12/21 15:02:58;;;;;;;43.67;23.70;;;11.90;48.20;;;;;;5051918;28;20057;-80
2022/12/21 15:05:41;;;;;;;47.13;23.42;;;12.00;48.20;;;;;;5051396;28;20120;-87
2022/12/21 15:08:12;;;;;;;45.97;22.95;;;11.90;48.40;;;;;;5050997;28;20429;-87
2022/12/21 15:10:44;;;;;;;126.00;51.47;;;11.90;48.50;;;;;;5050755;28;20464;-81
2022/12/21 15:13:28;;;;;;;50.30;25.25;;;12.00;48.50;;;;;;5051934;28;20057;-81
2022/12/21 15:16:12;;;;;;;41.78;22.77;;;12.00;48.40;;;;;;5063091;28;20468;-85
2022/12/21 15:18:41;;;;;;;73.10;33.75;;;12.00;48.30;;;;;;5056249;28;20402;-81
2022/12/21 15:21:25;;;;;;;95.60;42.85;;;11.90;48.60;;;;;;5063087;28;20078;-79
2022/12/21 15:23:55;;;;;;;101.25;43.15;;;11.90;48.30;;;;;;5066957;28;20777;-84
2022/12/21 15:26:32;;;;;;;94.38;43.30;;;12.00;48.10;;;;;;5065412;28;20037;-82
2022/12/21 15:29:01;;;;;;;94.03;42.65;;;11.80;48.50;;;;;;5064301;28;20032;-81
2022/12/21 15:31:37;;;;;;;90.38;42.33;;;11.90;48.60;;;;;;5051565;28;20035;-81
2022/12/21 15:34:09;;;;;;;108.75;48.70;;;12.00;48.70;;;;;;5063995;28;20035;-80
2022/12/21 15:36:38;;;;;;;111.03;46.67;;;12.10;48.70;;;;;;5049782;28;20032;-81
2022/12/21 15:39:10;;;;;;;99.67;44.23;;;12.20;48.70;;;;;;5059990;28;20024;-85
2022/12/21 15:41:55;;;;;;;70.22;34.72;;;12.10;48.70;;;;;;5071969;28;20434;-80
2022/12/21 15:44:25;;;;;;;73.53;33.63;;;12.10;48.50;;;;;;5057224;28;20037;-82
2022/12/21 15:47:00;;;;;;;55.45;28.00;;;11.80;48.70;;;;;;5058986;28;20134;-81
2022/12/21 15:49:39;;;;;;;47.20;24.90;;;11.60;49.50;;;;;;5072861;28;20036;-83
2022/12/21 15:52:49;;;;;;;55.90;25.67;;;11.50;49.40;;;;;;5058821;28;20395;-81
2022/12/21 15:55:16;;;;;;;;;;;11.60;48.90;;;;;;5057402;28;20021;-83
2022/12/21 15:57:48;;;;;;;59.30;27.35;;;11.40;49.10;;;;;;5072639;28;20306;-81
2022/12/21 16:00:20;;;;;;;43.53;21.95;;;11.50;49.40;;;;;;5063531;28;20056;-80
2022/12/21 16:02:55;;;;;;;41.05;19.77;;;11.60;49.60;;;;;;5048335;28;20021;-81
2022/12/21 16:05:24;;;;;;;38.00;19.70;;;11.60;49.20;;;;;;5069923;28;20032;-81
2022/12/21 16:07:50;;;;;;;36.15;19.98;;;11.60;49.00;;;;;;5054493;28;20764;-79
2022/12/21 16:10:53;;;;;;;47.80;24.90;;;11.50;49.30;;;;;;5045329;28;20513;-81